sensor_id;sensor_type;location;lat;lon;timestamp;P1;durP1;ratioP1;P2;durP2;ratioP2
6679;SDS011;3376;42.664;23.346;2023-04-24T00:00:53;9.70;;;8.87;;
6679;SDS011;3376;42.664;23.346;2023-04-24T00:03:21;9.43;;;8.60;;
6679;SDS011;3376;42.664;23.346;2023-04-24T00:05:48;7.97;;;7.23;;
6679;SDS011;3376;42.664;23.346;2023-04-24T00:08:16;7.77;;;7.20;;
6679;SDS011;3376;42.664;23.346;2023-04-24T00:10:44;8.70;;;8.00;;
6679;SDS011;3376;42.664;23.346;2023-04-24T00:13:11;9.00;;;7.57;;
6679;SDS011;3376;42.664;23.346;2023-04-24T00:15:37;8.07;;;7.53;;
6679;SDS011;3376;42.664;23.346;2023-04-24T00:18:04;8.73;;;7.80;;
6679;SDS011;3376;42.664;23.346;2023-04-24T00:20:31;9.93;;;7.73;;
6679;SDS011;3376;42.664;23.346;2023-04-24T00:22:58;8.57;;;8.13;;
6679;SDS011;3376;42.664;23.346;2023-04-24T00:25:25;8.43;;;7.77;;
6679;SDS011;3376;42.664;23.346;2023-04-24T00:27:53;8.50;;;8.00;;
6679;SDS011;3376;42.664;23.346;2023-04-24T00:30:20;8.27;;;7.83;;
6679;SDS011;3376;42.664;23.346;2023-04-24T00:32:46;9.37;;;8.43;;
6679;SDS011;3376;42.664;23.346;2023-04-24T00:35:13;8.53;;;8.03;;
6679;SDS011;3376;42.664;23.346;2023-04-24T00:37:40;9.37;;;8.67;;
6679;SDS011;3376;42.664;23.346;2023-04-24T00:40:07;9.43;;;8.60;;
6679;SDS011;3376;42.664;23.346;2023-04-24T00:42:35;9.03;;;8.43;;
6679;SDS011;3376;42.664;23.346;2023-04-24T00:45:04;9.30;;;8.73;;
6679;SDS011;3376;42.664;23.346;2023-04-24T00:47:31;9.50;;;8.53;;
6679;SDS011;3376;42.664;23.346;2023-04-24T00:50:00;7.87;;;7.23;;
6679;SDS011;3376;42.664;23.346;2023-04-24T00:52:27;7.70;;;7.10;;
6679;SDS011;3376;42.664;23.346;2023-04-24T00:54:56;9.70;;;7.73;;
6679;SDS011;3376;42.664;23.346;2023-04-24T00:57:23;8.80;;;7.63;;
6679;SDS011;3376;42.664;23.346;2023-04-24T00:59:50;9.33;;;8.40;;
6679;SDS011;3376;42.664;23.346;2023-04-24T01:02:19;10.27;;;7.63;;
6679;SDS011;3376;42.664;23.346;2023-04-24T01:04:48;8.00;;;7.60;;
6679;SDS011;3376;42.664;23.346;2023-04-24T01:07:16;7.50;;;6.93;;
6679;SDS011;3376;42.664;23.346;2023-04-24T01:09:45;8.87;;;8.10;;
6679;SDS011;3376;42.664;23.346;2023-04-24T01:12:16;6.40;;;6.00;;
6679;SDS011;3376;42.664;23.346;2023-04-24T01:14:43;6.40;;;5.90;;
6679;SDS011;3376;42.664;23.346;2023-04-24T01:17:10;6.43;;;5.83;;
6679;SDS011;3376;42.664;23.346;2023-04-24T01:19:38;6.53;;;6.23;;
6679;SDS011;3376;42.664;23.346;2023-04-24T01:22:11;5.70;;;5.30;;
6679;SDS011;3376;42.664;23.346;2023-04-24T01:24:38;6.80;;;5.93;;
6679;SDS011;3376;42.664;23.346;2023-04-24T01:27:06;5.73;;;5.43;;
6679;SDS011;3376;42.664;23.346;2023-04-24T01:29:33;5.63;;;5.23;;
6679;SDS011;3376;42.664;23.346;2023-04-24T01:32:00;5.73;;;5.27;;
6679;SDS011;3376;42.664;23.346;2023-04-24T01:34:28;7.03;;;5.43;;
6679;SDS011;3376;42.664;23.346;2023-04-24T01:36:55;5.70;;;4.90;;
6679;SDS011;3376;42.664;23.346;2023-04-24T01:39:24;5.67;;;5.20;;
6679;SDS011;3376;42.664;23.346;2023-04-24T01:41:51;5.80;;;5.60;;
6679;SDS011;3376;42.664;23.346;2023-04-24T01:44:18;5.23;;;4.93;;
6679;SDS011;3376;42.664;23.346;2023-04-24T01:46:45;5.03;;;4.63;;
6679;SDS011;3376;42.664;23.346;2023-04-24T01:49:12;4.73;;;4.43;;
6679;SDS011;3376;42.664;23.346;2023-04-24T01:51:39;5.30;;;4.90;;
6679;SDS011;3376;42.664;23.346;2023-04-24T01:54:06;5.43;;;5.03;;
6679;SDS011;3376;42.664;23.346;2023-04-24T01:56:34;8.83;;;6.30;;
6679;SDS011;3376;42.664;23.346;2023-04-24T01:59:01;6.30;;;5.90;;
6679;SDS011;3376;42.664;23.346;2023-04-24T02:01:33;12.10;;;5.57;;
6679;SDS011;3376;42.664;23.346;2023-04-24T02:04:01;5.70;;;5.27;;
6679;SDS011;3376;42.664;23.346;2023-04-24T02:06:28;6.23;;;5.93;;
6679;SDS011;3376;42.664;23.346;2023-04-24T02:08:56;6.90;;;6.60;;
6679;SDS011;3376;42.664;23.346;2023-04-24T02:11:23;6.97;;;6.37;;
6679;SDS011;3376;42.664;23.346;2023-04-24T02:13:51;7.13;;;6.40;;
6679;SDS011;3376;42.664;23.346;2023-04-24T02:16:18;6.97;;;6.30;;
6679;SDS011;3376;42.664;23.346;2023-04-24T02:18:44;8.27;;;7.20;;
6679;SDS011;3376;42.664;23.346;2023-04-24T02:21:11;6.90;;;6.43;;
6679;SDS011;3376;42.664;23.346;2023-04-24T02:23:38;6.83;;;6.33;;
6679;SDS011;3376;42.664;23.346;2023-04-24T02:26:05;7.87;;;6.90;;
6679;SDS011;3376;42.664;23.346;2023-04-24T02:28:32;13.33;;;7.27;;
6679;SDS011;3376;42.664;23.346;2023-04-24T02:31:00;10.77;;;6.23;;
6679;SDS011;3376;42.664;23.346;2023-04-24T02:33:27;7.57;;;6.80;;
6679;SDS011;3376;42.664;23.346;2023-04-24T02:35:54;6.97;;;6.67;;
6679;SDS011;3376;42.664;23.346;2023-04-24T02:38:20;6.90;;;6.30;;
6679;SDS011;3376;42.664;23.346;2023-04-24T02:40:47;7.00;;;6.37;;
6679;SDS011;3376;42.664;23.346;2023-04-24T02:43:14;7.07;;;6.40;;
6679;SDS011;3376;42.664;23.346;2023-04-24T02:45:40;6.77;;;6.23;;
6679;SDS011;3376;42.664;23.346;2023-04-24T02:48:08;8.67;;;6.90;;
6679;SDS011;3376;42.664;23.346;2023-04-24T02:50:35;7.80;;;7.10;;
6679;SDS011;3376;42.664;23.346;2023-04-24T02:53:02;7.60;;;6.83;;
6679;SDS011;3376;42.664;23.346;2023-04-24T02:55:29;8.47;;;7.40;;
6679;SDS011;3376;42.664;23.346;2023-04-24T02:57:56;7.50;;;6.80;;
6679;SDS011;3376;42.664;23.346;2023-04-24T03:00:23;7.23;;;6.77;;
6679;SDS011;3376;42.664;23.346;2023-04-24T03:02:50;14.10;;;7.30;;
6679;SDS011;3376;42.664;23.346;2023-04-24T03:05:18;7.73;;;7.23;;
6679;SDS011;3376;42.664;23.346;2023-04-24T03:07:45;7.60;;;6.73;;
6679;SDS011;3376;42.664;23.346;2023-04-24T03:10:12;12.03;;;7.63;;
6679;SDS011;3376;42.664;23.346;2023-04-24T03:12:38;12.60;;;7.27;;
6679;SDS011;3376;42.664;23.346;2023-04-24T03:15:06;6.57;;;6.17;;
6679;SDS011;3376;42.664;23.346;2023-04-24T03:17:33;6.63;;;6.20;;
6679;SDS011;3376;42.664;23.346;2023-04-24T03:20:00;7.53;;;7.03;;
6679;SDS011;3376;42.664;23.346;2023-04-24T03:22:28;7.07;;;6.60;;
6679;SDS011;3376;42.664;23.346;2023-04-24T03:24:57;7.67;;;7.03;;
6679;SDS011;3376;42.664;23.346;2023-04-24T03:27:24;6.83;;;6.43;;
6679;SDS011;3376;42.664;23.346;2023-04-24T03:29:51;7.23;;;6.67;;
6679;SDS011;3376;42.664;23.346;2023-04-24T03:32:20;8.20;;;6.70;;
6679;SDS011;3376;42.664;23.346;2023-04-24T03:34:47;6.97;;;6.57;;
6679;SDS011;3376;42.664;23.346;2023-04-24T03:37:13;6.80;;;6.30;;
6679;SDS011;3376;42.664;23.346;2023-04-24T03:39:41;8.03;;;6.23;;
6679;SDS011;3376;42.664;23.346;2023-04-24T03:42:08;6.67;;;6.27;;
6679;SDS011;3376;42.664;23.346;2023-04-24T03:44:35;7.90;;;6.70;;
6679;SDS011;3376;42.664;23.346;2023-04-24T03:47:02;8.57;;;6.80;;
6679;SDS011;3376;42.664;23.346;2023-04-24T03:49:29;7.37;;;6.70;;
6679;SDS011;3376;42.664;23.346;2023-04-24T03:51:55;6.63;;;6.03;;
6679;SDS011;3376;42.664;23.346;2023-04-24T03:54:22;9.63;;;6.87;;
6679;SDS011;3376;42.664;23.346;2023-04-24T03:56:50;7.13;;;6.63;;
6679;SDS011;3376;42.664;23.346;2023-04-24T03:59:17;11.67;;;7.27;;
6679;SDS011;3376;42.664;23.346;2023-04-24T04:01:44;8.23;;;7.70;;
6679;SDS011;3376;42.664;23.346;2023-04-24T04:04:11;7.70;;;7.10;;
6679;SDS011;3376;42.664;23.346;2023-04-24T04:06:38;9.23;;;8.20;;
6679;SDS011;3376;42.664;23.346;2023-04-24T04:09:04;7.73;;;7.23;;
6679;SDS011;3376;42.664;23.346;2023-04-24T04:11:32;8.13;;;7.43;;
6679;SDS011;3376;42.664;23.346;2023-04-24T04:14:01;9.73;;;7.10;;
6679;SDS011;3376;42.664;23.346;2023-04-24T04:16:28;7.80;;;7.40;;
6679;SDS011;3376;42.664;23.346;2023-04-24T04:18:55;8.00;;;7.37;;
6679;SDS011;3376;42.664;23.346;2023-04-24T04:21:22;8.10;;;7.43;;
6679;SDS011;3376;42.664;23.346;2023-04-24T04:23:49;7.00;;;6.50;;
6679;SDS011;3376;42.664;23.346;2023-04-24T04:26:15;8.93;;;8.23;;
6679;SDS011;3376;42.664;23.346;2023-04-24T04:28:44;7.63;;;6.90;;
6679;SDS011;3376;42.664;23.346;2023-04-24T04:31:12;8.53;;;7.83;;
6679;SDS011;3376;42.664;23.346;2023-04-24T04:33:39;7.80;;;7.23;;
6679;SDS011;3376;42.664;23.346;2023-04-24T04:36:05;8.60;;;6.73;;
6679;SDS011;3376;42.664;23.346;2023-04-24T04:38:33;8.23;;;7.53;;
6679;SDS011;3376;42.664;23.346;2023-04-24T04:41:00;7.53;;;7.03;;
6679;SDS011;3376;42.664;23.346;2023-04-24T04:43:27;9.63;;;6.83;;
6679;SDS011;3376;42.664;23.346;2023-04-24T04:45:54;7.37;;;6.77;;
6679;SDS011;3376;42.664;23.346;2023-04-24T04:48:22;6.13;;;5.83;;
6679;SDS011;3376;42.664;23.346;2023-04-24T04:50:49;7.30;;;6.67;;
6679;SDS011;3376;42.664;23.346;2023-04-24T04:53:16;9.47;;;7.37;;
6679;SDS011;3376;42.664;23.346;2023-04-24T04:55:42;6.77;;;6.33;;
6679;SDS011;3376;42.664;23.346;2023-04-24T04:58:09;8.63;;;7.10;;
6679;SDS011;3376;42.664;23.346;2023-04-24T05:00:36;8.97;;;6.10;;
6679;SDS011;3376;42.664;23.346;2023-04-24T05:03:03;7.20;;;5.80;;
6679;SDS011;3376;42.664;23.346;2023-04-24T05:05:31;6.77;;;5.53;;
6679;SDS011;3376;42.664;23.346;2023-04-24T05:07:58;5.43;;;5.00;;
6679;SDS011;3376;42.664;23.346;2023-04-24T05:10:25;7.07;;;5.10;;
6679;SDS011;3376;42.664;23.346;2023-04-24T05:12:51;8.67;;;5.53;;
6679;SDS011;3376;42.664;23.346;2023-04-24T05:15:18;7.67;;;5.30;;
6679;SDS011;3376;42.664;23.346;2023-04-24T05:17:45;5.67;;;5.33;;
6679;SDS011;3376;42.664;23.346;2023-04-24T05:20:11;5.67;;;5.17;;
6679;SDS011;3376;42.664;23.346;2023-04-24T05:22:41;7.80;;;4.80;;
6679;SDS011;3376;42.664;23.346;2023-04-24T05:25:08;5.17;;;4.87;;
6679;SDS011;3376;42.664;23.346;2023-04-24T05:27:35;5.43;;;5.03;;
6679;SDS011;3376;42.664;23.346;2023-04-24T05:30:02;5.47;;;4.80;;
6679;SDS011;3376;42.664;23.346;2023-04-24T05:32:29;5.87;;;5.37;;
6679;SDS011;3376;42.664;23.346;2023-04-24T05:34:56;7.40;;;6.27;;
6679;SDS011;3376;42.664;23.346;2023-04-24T05:37:23;6.97;;;5.10;;
6679;SDS011;3376;42.664;23.346;2023-04-24T05:39:51;6.07;;;5.60;;
6679;SDS011;3376;42.664;23.346;2023-04-24T05:42:18;5.70;;;5.40;;
6679;SDS011;3376;42.664;23.346;2023-04-24T05:44:44;6.33;;;5.73;;
6679;SDS011;3376;42.664;23.346;2023-04-24T05:47:11;5.80;;;5.50;;
6679;SDS011;3376;42.664;23.346;2023-04-24T05:49:38;6.77;;;5.70;;
6679;SDS011;3376;42.664;23.346;2023-04-24T05:52:05;6.53;;;5.67;;
6679;SDS011;3376;42.664;23.346;2023-04-24T05:54:33;6.63;;;6.20;;
6679;SDS011;3376;42.664;23.346;2023-04-24T05:57:01;7.17;;;6.60;;
6679;SDS011;3376;42.664;23.346;2023-04-24T05:59:32;6.33;;;5.60;;
6679;SDS011;3376;42.664;23.346;2023-04-24T06:01:59;6.50;;;6.00;;
6679;SDS011;3376;42.664;23.346;2023-04-24T06:04:26;6.47;;;6.07;;
6679;SDS011;3376;42.664;23.346;2023-04-24T06:06:53;12.70;;;6.00;;
6679;SDS011;3376;42.664;23.346;2023-04-24T06:09:21;7.13;;;6.47;;
6679;SDS011;3376;42.664;23.346;2023-04-24T06:11:49;8.00;;;6.57;;
6679;SDS011;3376;42.664;23.346;2023-04-24T06:14:19;6.50;;;5.97;;
6679;SDS011;3376;42.664;23.346;2023-04-24T06:16:46;6.47;;;5.97;;
6679;SDS011;3376;42.664;23.346;2023-04-24T06:19:13;9.03;;;6.93;;
6679;SDS011;3376;42.664;23.346;2023-04-24T06:21:39;7.07;;;6.47;;
6679;SDS011;3376;42.664;23.346;2023-04-24T06:24:06;8.13;;;6.73;;
6679;SDS011;3376;42.664;23.346;2023-04-24T06:26:33;7.00;;;6.40;;
6679;SDS011;3376;42.664;23.346;2023-04-24T06:29:00;7.87;;;7.10;;
6679;SDS011;3376;42.664;23.346;2023-04-24T06:31:28;7.83;;;7.33;;
6679;SDS011;3376;42.664;23.346;2023-04-24T06:33:55;7.67;;;7.30;;
6679;SDS011;3376;42.664;23.346;2023-04-24T06:36:21;9.00;;;7.50;;
6679;SDS011;3376;42.664;23.346;2023-04-24T06:38:48;7.70;;;7.07;;
6679;SDS011;3376;42.664;23.346;2023-04-24T06:41:15;8.80;;;8.17;;
6679;SDS011;3376;42.664;23.346;2023-04-24T06:43:42;8.70;;;8.13;;
6679;SDS011;3376;42.664;23.346;2023-04-24T06:46:08;8.10;;;7.40;;
6679;SDS011;3376;42.664;23.346;2023-04-24T06:48:38;7.67;;;7.20;;
6679;SDS011;3376;42.664;23.346;2023-04-24T06:51:05;13.43;;;7.10;;
6679;SDS011;3376;42.664;23.346;2023-04-24T06:53:32;9.00;;;8.13;;
6679;SDS011;3376;42.664;23.346;2023-04-24T06:55:59;7.13;;;6.67;;
6679;SDS011;3376;42.664;23.346;2023-04-24T06:58:25;8.10;;;7.33;;
6679;SDS011;3376;42.664;23.346;2023-04-24T07:00:52;8.63;;;8.10;;
6679;SDS011;3376;42.664;23.346;2023-04-24T07:03:19;8.77;;;7.90;;
6679;SDS011;3376;42.664;23.346;2023-04-24T07:05:47;7.87;;;7.10;;
6679;SDS011;3376;42.664;23.346;2023-04-24T07:08:14;8.40;;;7.80;;
6679;SDS011;3376;42.664;23.346;2023-04-24T07:10:42;8.73;;;7.47;;
6679;SDS011;3376;42.664;23.346;2023-04-24T07:13:09;7.97;;;7.33;;
6679;SDS011;3376;42.664;23.346;2023-04-24T07:15:35;9.23;;;7.50;;
6679;SDS011;3376;42.664;23.346;2023-04-24T07:18:02;7.80;;;7.33;;
6679;SDS011;3376;42.664;23.346;2023-04-24T07:20:29;10.17;;;8.07;;
6679;SDS011;3376;42.664;23.346;2023-04-24T07:22:57;9.37;;;8.47;;
6679;SDS011;3376;42.664;23.346;2023-04-24T07:25:24;8.17;;;7.33;;
6679;SDS011;3376;42.664;23.346;2023-04-24T07:27:51;8.20;;;7.60;;
6679;SDS011;3376;42.664;23.346;2023-04-24T07:30:18;8.37;;;7.70;;
6679;SDS011;3376;42.664;23.346;2023-04-24T07:32:45;8.43;;;7.93;;
6679;SDS011;3376;42.664;23.346;2023-04-24T07:35:11;8.30;;;7.70;;
6679;SDS011;3376;42.664;23.346;2023-04-24T07:37:38;9.57;;;8.80;;
6679;SDS011;3376;42.664;23.346;2023-04-24T07:40:07;8.53;;;7.93;;
6679;SDS011;3376;42.664;23.346;2023-04-24T07:42:34;8.20;;;7.53;;
6679;SDS011;3376;42.664;23.346;2023-04-24T07:45:01;7.33;;;6.83;;
6679;SDS011;3376;42.664;23.346;2023-04-24T07:47:28;8.70;;;7.97;;
6679;SDS011;3376;42.664;23.346;2023-04-24T07:49:55;8.03;;;7.57;;
6679;SDS011;3376;42.664;23.346;2023-04-24T07:52:23;7.73;;;7.00;;
6679;SDS011;3376;42.664;23.346;2023-04-24T07:54:49;6.30;;;6.00;;
6679;SDS011;3376;42.664;23.346;2023-04-24T07:57:19;6.07;;;5.47;;
6679;SDS011;3376;42.664;23.346;2023-04-24T07:59:45;6.07;;;5.60;;
6679;SDS011;3376;42.664;23.346;2023-04-24T08:02:12;7.00;;;6.23;;
6679;SDS011;3376;42.664;23.346;2023-04-24T08:04:39;6.47;;;5.97;;
6679;SDS011;3376;42.664;23.346;2023-04-24T08:07:06;6.50;;;6.00;;
6679;SDS011;3376;42.664;23.346;2023-04-24T08:09:33;7.40;;;6.10;;
6679;SDS011;3376;42.664;23.346;2023-04-24T08:12:00;6.50;;;5.97;;
6679;SDS011;3376;42.664;23.346;2023-04-24T08:14:29;6.77;;;6.27;;
6679;SDS011;3376;42.664;23.346;2023-04-24T08:16:55;6.90;;;6.17;;
6679;SDS011;3376;42.664;23.346;2023-04-24T08:19:24;6.67;;;6.17;;
6679;SDS011;3376;42.664;23.346;2023-04-24T08:21:51;6.23;;;5.80;;
6679;SDS011;3376;42.664;23.346;2023-04-24T08:24:18;6.50;;;5.83;;
6679;SDS011;3376;42.664;23.346;2023-04-24T08:26:44;6.00;;;5.50;;
6679;SDS011;3376;42.664;23.346;2023-04-24T08:29:11;6.53;;;6.03;;
6679;SDS011;3376;42.664;23.346;2023-04-24T08:31:39;5.93;;;5.47;;
6679;SDS011;3376;42.664;23.346;2023-04-24T08:34:06;6.40;;;6.10;;
6679;SDS011;3376;42.664;23.346;2023-04-24T08:36:33;6.63;;;6.00;;
6679;SDS011;3376;42.664;23.346;2023-04-24T08:39:00;6.60;;;6.20;;
6679;SDS011;3376;42.664;23.346;2023-04-24T08:41:26;5.90;;;5.60;;
6679;SDS011;3376;42.664;23.346;2023-04-24T08:43:53;6.03;;;5.50;;
6679;SDS011;3376;42.664;23.346;2023-04-24T08:46:23;6.20;;;5.77;;
6679;SDS011;3376;42.664;23.346;2023-04-24T08:48:52;6.03;;;5.60;;
6679;SDS011;3376;42.664;23.346;2023-04-24T08:51:19;5.53;;;5.33;;
6679;SDS011;3376;42.664;23.346;2023-04-24T08:53:46;6.07;;;5.47;;
6679;SDS011;3376;42.664;23.346;2023-04-24T08:56:13;7.47;;;5.53;;
6679;SDS011;3376;42.664;23.346;2023-04-24T08:58:41;5.37;;;4.87;;
6679;SDS011;3376;42.664;23.346;2023-04-24T09:01:09;5.87;;;5.00;;
6679;SDS011;3376;42.664;23.346;2023-04-24T09:03:36;5.83;;;5.50;;
6679;SDS011;3376;42.664;23.346;2023-04-24T09:06:06;4.73;;;4.43;;
6679;SDS011;3376;42.664;23.346;2023-04-24T09:08:35;5.30;;;4.80;;
6679;SDS011;3376;42.664;23.346;2023-04-24T09:11:02;4.87;;;4.67;;
6679;SDS011;3376;42.664;23.346;2023-04-24T09:13:30;5.57;;;5.13;;
6679;SDS011;3376;42.664;23.346;2023-04-24T09:15:58;5.13;;;4.70;;
6679;SDS011;3376;42.664;23.346;2023-04-24T09:18:25;9.17;;;4.90;;
6679;SDS011;3376;42.664;23.346;2023-04-24T09:20:59;8.43;;;4.37;;
6679;SDS011;3376;42.664;23.346;2023-04-24T09:23:29;6.77;;;4.60;;
6679;SDS011;3376;42.664;23.346;2023-04-24T09:25:57;5.13;;;4.73;;
6679;SDS011;3376;42.664;23.346;2023-04-24T09:28:26;6.00;;;4.80;;
6679;SDS011;3376;42.664;23.346;2023-04-24T09:31:02;4.70;;;4.37;;
6679;SDS011;3376;42.664;23.346;2023-04-24T09:33:33;5.20;;;4.80;;
6679;SDS011;3376;42.664;23.346;2023-04-24T09:36:00;6.70;;;4.67;;
6679;SDS011;3376;42.664;23.346;2023-04-24T09:38:32;5.00;;;4.70;;
6679;SDS011;3376;42.664;23.346;2023-04-24T09:41:00;4.43;;;3.93;;
6679;SDS011;3376;42.664;23.346;2023-04-24T09:43:28;7.03;;;4.37;;
6679;SDS011;3376;42.664;23.346;2023-04-24T09:45:55;5.30;;;5.00;;
6679;SDS011;3376;42.664;23.346;2023-04-24T09:48:29;4.43;;;4.23;;
6679;SDS011;3376;42.664;23.346;2023-04-24T09:50:57;4.73;;;4.43;;
6679;SDS011;3376;42.664;23.346;2023-04-24T09:53:24;7.97;;;4.23;;
6679;SDS011;3376;42.664;23.346;2023-04-24T09:55:53;4.53;;;4.07;;
6679;SDS011;3376;42.664;23.346;2023-04-24T09:58:24;4.60;;;4.40;;
6679;SDS011;3376;42.664;23.346;2023-04-24T10:00:53;5.33;;;4.83;;
6679;SDS011;3376;42.664;23.346;2023-04-24T10:03:23;5.40;;;5.00;;
6679;SDS011;3376;42.664;23.346;2023-04-24T10:05:52;5.97;;;4.73;;
6679;SDS011;3376;42.664;23.346;2023-04-24T10:08:19;4.90;;;4.63;;
6679;SDS011;3376;42.664;23.346;2023-04-24T10:10:47;5.53;;;5.03;;
6679;SDS011;3376;42.664;23.346;2023-04-24T10:13:15;4.93;;;4.60;;
6679;SDS011;3376;42.664;23.346;2023-04-24T10:15:42;5.37;;;4.87;;
6679;SDS011;3376;42.664;23.346;2023-04-24T10:18:09;5.33;;;4.83;;
6679;SDS011;3376;42.664;23.346;2023-04-24T10:20:37;4.70;;;4.37;;
6679;SDS011;3376;42.664;23.346;2023-04-24T10:23:05;4.70;;;4.50;;
6679;SDS011;3376;42.664;23.346;2023-04-24T10:25:33;4.57;;;4.23;;
6679;SDS011;3376;42.664;23.346;2023-04-24T10:28:02;4.60;;;4.40;;
6679;SDS011;3376;42.664;23.346;2023-04-24T10:30:31;4.73;;;3.63;;
6679;SDS011;3376;42.664;23.346;2023-04-24T10:33:01;5.17;;;4.67;;
6679;SDS011;3376;42.664;23.346;2023-04-24T10:35:30;4.90;;;4.30;;
6679;SDS011;3376;42.664;23.346;2023-04-24T10:37:58;4.90;;;4.50;;
6679;SDS011;3376;42.664;23.346;2023-04-24T10:40:30;6.03;;;4.43;;
6679;SDS011;3376;42.664;23.346;2023-04-24T10:42:58;3.87;;;3.57;;
6679;SDS011;3376;42.664;23.346;2023-04-24T10:45:25;4.60;;;4.40;;
6679;SDS011;3376;42.664;23.346;2023-04-24T10:48:03;4.63;;;4.33;;
6679;SDS011;3376;42.664;23.346;2023-04-24T10:50:42;5.03;;;4.60;;
6679;SDS011;3376;42.664;23.346;2023-04-24T10:53:12;6.60;;;4.47;;
6679;SDS011;3376;42.664;23.346;2023-04-24T10:55:43;4.40;;;4.10;;
6679;SDS011;3376;42.664;23.346;2023-04-24T10:58:11;5.83;;;4.20;;
6679;SDS011;3376;42.664;23.346;2023-04-24T11:00:54;4.03;;;3.72;;
6679;SDS011;3376;42.664;23.346;2023-04-24T11:03:24;5.50;;;3.47;;
6679;SDS011;3376;42.664;23.346;2023-04-24T11:05:53;5.57;;;5.07;;
6679;SDS011;3376;42.664;23.346;2023-04-24T11:08:26;7.07;;;3.53;;
6679;SDS011;3376;42.664;23.346;2023-04-24T11:10:55;3.37;;;3.27;;
6679;SDS011;3376;42.664;23.346;2023-04-24T11:13:24;4.13;;;3.60;;
6679;SDS011;3376;42.664;23.346;2023-04-24T11:18:43;4.30;;;3.90;;
6679;SDS011;3376;42.664;23.346;2023-04-24T11:21:16;3.63;;;3.53;;
6679;SDS011;3376;42.664;23.346;2023-04-24T11:23:44;5.03;;;4.63;;
6679;SDS011;3376;42.664;23.346;2023-04-24T11:26:11;4.87;;;4.47;;
6679;SDS011;3376;42.664;23.346;2023-04-24T11:28:44;3.77;;;3.67;;
6679;SDS011;3376;42.664;23.346;2023-04-24T11:34:09;5.30;;;3.47;;
6679;SDS011;3376;42.664;23.346;2023-04-24T11:36:37;5.53;;;3.13;;
6679;SDS011;3376;42.664;23.346;2023-04-24T11:39:04;3.90;;;3.10;;
6679;SDS011;3376;42.664;23.346;2023-04-24T11:41:31;3.50;;;3.20;;
6679;SDS011;3376;42.664;23.346;2023-04-24T11:43:59;3.27;;;3.07;;
6679;SDS011;3376;42.664;23.346;2023-04-24T11:46:27;4.10;;;2.90;;
6679;SDS011;3376;42.664;23.346;2023-04-24T11:48:55;3.50;;;3.20;;
6679;SDS011;3376;42.664;23.346;2023-04-24T11:51:24;3.80;;;2.97;;
6679;SDS011;3376;42.664;23.346;2023-04-24T11:53:51;6.63;;;4.40;;
6679;SDS011;3376;42.664;23.346;2023-04-24T11:56:19;4.80;;;4.60;;
6679;SDS011;3376;42.664;23.346;2023-04-24T11:58:47;3.73;;;3.63;;
6679;SDS011;3376;42.664;23.346;2023-04-24T12:01:14;5.00;;;4.80;;
6679;SDS011;3376;42.664;23.346;2023-04-24T12:03:41;4.23;;;4.03;;
6679;SDS011;3376;42.664;23.346;2023-04-24T12:06:11;6.90;;;3.80;;
6679;SDS011;3376;42.664;23.346;2023-04-24T12:08:40;4.70;;;4.50;;
6679;SDS011;3376;42.664;23.346;2023-04-24T12:11:07;4.80;;;4.10;;
6679;SDS011;3376;42.664;23.346;2023-04-24T12:13:34;4.27;;;3.97;;
6679;SDS011;3376;42.664;23.346;2023-04-24T12:16:02;4.20;;;4.00;;
6679;SDS011;3376;42.664;23.346;2023-04-24T12:18:30;4.77;;;4.47;;
6679;SDS011;3376;42.664;23.346;2023-04-24T12:23:46;4.67;;;4.47;;
6679;SDS011;3376;42.664;23.346;2023-04-24T12:26:16;3.60;;;3.40;;
6679;SDS011;3376;42.664;23.346;2023-04-24T12:28:45;3.30;;;3.10;;
6679;SDS011;3376;42.664;23.346;2023-04-24T12:31:14;3.27;;;3.03;;
6679;SDS011;3376;42.664;23.346;2023-04-24T12:33:41;3.77;;;3.57;;
6679;SDS011;3376;42.664;23.346;2023-04-24T12:36:09;3.00;;;2.80;;
6679;SDS011;3376;42.664;23.346;2023-04-24T12:38:37;4.40;;;3.33;;
6679;SDS011;3376;42.664;23.346;2023-04-24T12:41:08;5.50;;;3.30;;
6679;SDS011;3376;42.664;23.346;2023-04-24T12:43:36;3.70;;;3.53;;
6679;SDS011;3376;42.664;23.346;2023-04-24T12:46:03;3.00;;;2.80;;
6679;SDS011;3376;42.664;23.346;2023-04-24T12:48:31;3.10;;;3.00;;
6679;SDS011;3376;42.664;23.346;2023-04-24T12:50:58;4.10;;;3.90;;
6679;SDS011;3376;42.664;23.346;2023-04-24T12:53:26;3.73;;;3.43;;
6679;SDS011;3376;42.664;23.346;2023-04-24T12:55:56;3.80;;;3.60;;
6679;SDS011;3376;42.664;23.346;2023-04-24T12:58:24;3.83;;;3.73;;
6679;SDS011;3376;42.664;23.346;2023-04-24T13:00:51;4.27;;;3.90;;
6679;SDS011;3376;42.664;23.346;2023-04-24T13:03:18;3.93;;;3.73;;
6679;SDS011;3376;42.664;23.346;2023-04-24T13:05:45;4.90;;;4.60;;
6679;SDS011;3376;42.664;23.346;2023-04-24T13:08:11;4.80;;;4.37;;
6679;SDS011;3376;42.664;23.346;2023-04-24T13:10:39;4.43;;;3.93;;
6679;SDS011;3376;42.664;23.346;2023-04-24T13:13:06;4.83;;;4.40;;
6679;SDS011;3376;42.664;23.346;2023-04-24T13:15:34;4.73;;;4.50;;
6679;SDS011;3376;42.664;23.346;2023-04-24T13:18:01;4.20;;;4.00;;
6679;SDS011;3376;42.664;23.346;2023-04-24T13:20:28;4.93;;;4.47;;
6679;SDS011;3376;42.664;23.346;2023-04-24T13:22:55;4.67;;;3.77;;
6679;SDS011;3376;42.664;23.346;2023-04-24T13:25:21;6.60;;;4.40;;
6679;SDS011;3376;42.664;23.346;2023-04-24T13:27:50;4.07;;;3.87;;
6679;SDS011;3376;42.664;23.346;2023-04-24T13:30:16;3.40;;;3.30;;
6679;SDS011;3376;42.664;23.346;2023-04-24T13:32:44;4.23;;;4.03;;
6679;SDS011;3376;42.664;23.346;2023-04-24T13:35:11;4.10;;;3.90;;
6679;SDS011;3376;42.664;23.346;2023-04-24T13:37:38;4.43;;;4.03;;
6679;SDS011;3376;42.664;23.346;2023-04-24T13:40:05;4.23;;;3.97;;
6679;SDS011;3376;42.664;23.346;2023-04-24T13:42:33;4.67;;;4.43;;
6679;SDS011;3376;42.664;23.346;2023-04-24T13:44:59;4.73;;;3.90;;
6679;SDS011;3376;42.664;23.346;2023-04-24T13:47:26;4.23;;;3.80;;
6679;SDS011;3376;42.664;23.346;2023-04-24T13:49:54;4.30;;;4.10;;
6679;SDS011;3376;42.664;23.346;2023-04-24T13:52:21;4.13;;;3.93;;
6679;SDS011;3376;42.664;23.346;2023-04-24T13:54:48;3.83;;;3.63;;
6679;SDS011;3376;42.664;23.346;2023-04-24T13:57:15;3.90;;;3.70;;
6679;SDS011;3376;42.664;23.346;2023-04-24T13:59:42;3.80;;;3.50;;
6679;SDS011;3376;42.664;23.346;2023-04-24T14:02:10;4.43;;;4.20;;
6679;SDS011;3376;42.664;23.346;2023-04-24T14:04:36;3.60;;;3.50;;
6679;SDS011;3376;42.664;23.346;2023-04-24T14:07:05;3.67;;;3.57;;
6679;SDS011;3376;42.664;23.346;2023-04-24T14:09:33;4.43;;;4.23;;
6679;SDS011;3376;42.664;23.346;2023-04-24T14:12:00;4.70;;;4.23;;
6679;SDS011;3376;42.664;23.346;2023-04-24T14:14:27;4.77;;;4.30;;
6679;SDS011;3376;42.664;23.346;2023-04-24T14:16:54;4.73;;;4.23;;
6679;SDS011;3376;42.664;23.346;2023-04-24T14:19:21;4.40;;;4.13;;
6679;SDS011;3376;42.664;23.346;2023-04-24T14:21:48;3.50;;;3.30;;
6679;SDS011;3376;42.664;23.346;2023-04-24T14:24:17;4.13;;;3.93;;
6679;SDS011;3376;42.664;23.346;2023-04-24T14:26:43;5.47;;;4.07;;
6679;SDS011;3376;42.664;23.346;2023-04-24T14:29:10;3.80;;;3.60;;
6679;SDS011;3376;42.664;23.346;2023-04-24T14:31:37;3.50;;;3.33;;
6679;SDS011;3376;42.664;23.346;2023-04-24T14:34:04;2.93;;;2.83;;
6679;SDS011;3376;42.664;23.346;2023-04-24T14:36:30;3.27;;;3.17;;
6679;SDS011;3376;42.664;23.346;2023-04-24T14:38:57;3.17;;;3.07;;
6679;SDS011;3376;42.664;23.346;2023-04-24T14:41:25;3.43;;;3.13;;
6679;SDS011;3376;42.664;23.346;2023-04-24T14:43:52;3.30;;;3.10;;
6679;SDS011;3376;42.664;23.346;2023-04-24T14:46:19;3.50;;;3.37;;
6679;SDS011;3376;42.664;23.346;2023-04-24T14:48:46;3.33;;;3.07;;
6679;SDS011;3376;42.664;23.346;2023-04-24T14:51:13;3.70;;;3.50;;
6679;SDS011;3376;42.664;23.346;2023-04-24T14:53:40;3.60;;;3.50;;
6679;SDS011;3376;42.664;23.346;2023-04-24T14:56:06;6.30;;;3.90;;
6679;SDS011;3376;42.664;23.346;2023-04-24T14:58:35;4.97;;;3.73;;
6679;SDS011;3376;42.664;23.346;2023-04-24T15:01:02;3.90;;;3.60;;
6679;SDS011;3376;42.664;23.346;2023-04-24T15:03:28;4.47;;;3.80;;
6679;SDS011;3376;42.664;23.346;2023-04-24T15:05:55;6.23;;;4.13;;
6679;SDS011;3376;42.664;23.346;2023-04-24T15:08:22;4.07;;;3.77;;
6679;SDS011;3376;42.664;23.346;2023-04-24T15:10:50;4.57;;;4.47;;